createdAt,value
2023-05-22T00:03:40.822Z,3.40
2023-05-22T00:08:51.477Z,3.00
2023-05-22T00:14:01.830Z,3.20
2023-05-22T00:19:19.762Z,3.00
2023-05-22T00:24:24.981Z,3.50
2023-05-22T00:29:38.181Z,3.40
2023-05-22T00:40:07.933Z,3.40
2023-05-22T00:45:15.621Z,3.90
2023-05-22T00:50:33.433Z,3.60
2023-05-22T00:55:45.216Z,3.10
2023-05-22T01:01:02.362Z,3.70
2023-05-22T01:06:24.503Z,3.70
2023-05-22T01:11:55.744Z,3.50
2023-05-22T01:17:35.626Z,3.50
2023-05-22T01:23:33.680Z,3.70
2023-05-22T01:29:12.950Z,3.40
2023-05-22T01:34:33.197Z,3.80
2023-05-22T01:39:54.012Z,3.90
2023-05-22T01:44:59.654Z,3.80
2023-05-22T01:50:08.522Z,3.50
2023-05-22T01:55:43.059Z,3.80
2023-05-22T02:00:55.817Z,3.40
2023-05-22T02:06:07.041Z,3.20
2023-05-22T02:11:32.783Z,3.40
2023-05-22T02:16:47.740Z,3.80
2023-05-22T02:22:18.489Z,3.40
2023-05-22T02:27:32.439Z,3.60
2023-05-22T02:37:46.404Z,3.60
2023-05-22T02:42:55.230Z,3.60
2023-05-22T02:48:20.881Z,3.60
2023-05-22T02:53:35.291Z,3.90
2023-05-22T02:58:40.195Z,3.80
2023-05-22T03:03:48.295Z,3.70
2023-05-22T03:09:08.799Z,3.50
2023-05-22T03:14:37.001Z,3.70
2023-05-22T03:19:45.864Z,3.60
2023-05-22T03:24:52.451Z,3.90
2023-05-22T03:30:14.018Z,3.70
2023-05-22T03:35:25.210Z,3.50
2023-05-22T03:40:33.200Z,3.10
2023-05-22T03:46:04.038Z,3.40
2023-05-22T03:51:46.524Z,3.50
2023-05-22T03:56:59.426Z,3.60
2023-05-22T04:02:16.835Z,3.50
2023-05-22T04:07:27.644Z,3.30
2023-05-22T04:12:41.023Z,3.40
2023-05-22T04:17:46.193Z,3.30
2023-05-22T04:22:59.312Z,3.50
2023-05-22T04:28:32.331Z,3.80
2023-05-22T04:33:48.481Z,3.20
2023-05-22T04:44:04.172Z,3.40
2023-05-22T04:49:06.673Z,3.50
2023-05-22T04:54:09.665Z,3.80
2023-05-22T04:59:16.427Z,3.10
2023-05-22T05:04:24.719Z,3.60
2023-05-22T05:09:35.086Z,3.60
2023-05-22T05:14:39.352Z,2.90
2023-05-22T05:19:45.149Z,3.60
2023-05-22T05:24:50.433Z,3.30
2023-05-22T05:29:55.221Z,3.50
2023-05-22T05:35:05.742Z,3.10
2023-05-22T05:40:48.025Z,3.30
2023-05-22T05:45:57.509Z,3.60
2023-05-22T05:51:02.940Z,3.10
2023-05-22T05:56:12.967Z,3.20
2023-05-22T06:01:30.023Z,2.90
2023-05-22T06:06:37.866Z,3.30
2023-05-22T06:11:40.198Z,3.20
2023-05-22T06:16:59.179Z,3.10
2023-05-22T06:22:08.791Z,2.50
2023-05-22T06:27:16.651Z,2.90
2023-05-22T06:32:25.206Z,2.70
2023-05-22T06:37:44.175Z,2.70
2023-05-22T06:42:47.307Z,2.70
2023-05-22T06:48:07.693Z,2.60
2023-05-22T06:53:19.826Z,3.50
2023-05-22T06:58:28.010Z,3.00
2023-05-22T07:03:36.651Z,3.20
2023-05-22T07:09:22.853Z,3.20
2023-05-22T07:14:32.778Z,3.00
2023-05-22T07:19:38.937Z,3.50
2023-05-22T07:25:12.160Z,2.90
2023-05-22T07:30:24.241Z,2.90
2023-05-22T07:35:43.252Z,2.80
2023-05-22T07:41:07.919Z,2.40
2023-05-22T07:46:17.905Z,2.70
2023-05-22T07:51:32.159Z,2.90
2023-05-22T07:56:41.767Z,2.30
2023-05-22T08:01:48.493Z,2.90
2023-05-22T08:06:53.650Z,2.10
2023-05-22T08:11:59.018Z,2.30
2023-05-22T08:17:01.889Z,2.30
2023-05-22T08:22:04.543Z,2.20
2023-05-22T08:27:07.456Z,2.50
2023-05-22T08:32:10.284Z,2.60
2023-05-22T08:37:14.421Z,2.10
2023-05-22T08:42:16.769Z,2.70
2023-05-22T08:47:20.545Z,2.20
2023-05-22T08:52:26.335Z,3.00
2023-05-22T08:57:32.575Z,2.90
2023-05-22T09:02:38.202Z,2.50
2023-05-22T09:07:42.754Z,4.30
2023-05-22T09:13:11.402Z,3.50
2023-05-22T09:18:16.531Z,2.60
2023-05-22T09:23:21.649Z,2.90
2023-05-22T09:28:24.607Z,4.50
2023-05-22T09:33:26.640Z,2.80
2023-05-22T09:38:30.906Z,2.60
2023-05-22T09:43:33.908Z,5.40
2023-05-22T09:48:37.430Z,3.10
2023-05-22T09:53:43.392Z,3.60
2023-05-22T09:58:47.823Z,3.30
2023-05-22T10:03:55.106Z,4.70
2023-05-22T10:09:18.768Z,3.00
2023-05-22T10:14:23.864Z,3.10
2023-05-22T10:19:29.463Z,3.30
2023-05-22T10:24:35.226Z,3.10
2023-05-22T10:29:45.064Z,3.10
2023-05-22T10:34:56.321Z,3.30
2023-05-22T10:40:04.982Z,4.50
2023-05-22T10:45:08.986Z,4.80
2023-05-22T10:50:12.211Z,6.60
2023-05-22T10:55:22.842Z,3.40
2023-05-22T11:00:25.189Z,3.20
2023-05-22T11:05:29.875Z,3.40
2023-05-22T11:10:53.078Z,3.60
2023-05-22T11:15:58.270Z,2.90
2023-05-22T11:21:01.375Z,3.00
2023-05-22T11:26:25.549Z,3.50
2023-05-22T11:31:30.525Z,4.00
2023-05-22T11:36:32.688Z,3.40
2023-05-22T11:41:37.534Z,3.30
2023-05-22T11:46:40.390Z,3.40
2023-05-22T11:51:42.941Z,3.50
2023-05-22T11:56:46.407Z,3.60
2023-05-22T12:01:50.512Z,4.70
2023-05-22T12:06:56.171Z,3.20
2023-05-22T12:12:02.017Z,3.60
2023-05-22T12:17:05.314Z,3.20
2023-05-22T12:22:14.970Z,3.80
2023-05-22T12:27:17.017Z,4.10
2023-05-22T12:32:22.211Z,3.70
2023-05-22T12:37:25.948Z,3.60
2023-05-22T12:42:39.140Z,3.10
2023-05-22T12:47:43.886Z,3.70
2023-05-22T12:52:46.188Z,3.70
2023-05-22T12:57:48.202Z,3.40
2023-05-22T13:02:50.558Z,3.40
2023-05-22T13:07:53.164Z,4.50
2023-05-22T13:12:58.095Z,3.30
2023-05-22T13:18:00.069Z,3.50
2023-05-22T13:23:02.102Z,3.80
2023-05-22T13:28:04.378Z,3.10
2023-05-22T13:33:09.067Z,3.30
2023-05-22T13:38:11.171Z,4.00
2023-05-22T13:43:14.552Z,3.40
2023-05-22T13:48:16.948Z,3.60
2023-05-22T13:53:22.194Z,3.30
2023-05-22T13:58:24.575Z,3.10
2023-05-22T14:03:27.674Z,3.70
2023-05-22T14:08:30.026Z,3.10
2023-05-22T14:13:32.013Z,3.40
2023-05-22T14:18:34.180Z,3.50
2023-05-22T14:23:36.554Z,3.40
2023-05-22T14:28:41.716Z,3.20
2023-05-22T14:33:44.176Z,3.10
2023-05-22T14:38:46.823Z,3.20
2023-05-22T14:43:49.759Z,3.50
2023-05-22T14:48:51.873Z,3.40
2023-05-22T14:53:53.864Z,3.60
2023-05-22T14:58:56.157Z,3.30
2023-05-22T15:03:58.129Z,3.40
2023-05-22T15:09:00.110Z,3.60
2023-05-22T15:14:02.157Z,3.40
2023-05-22T15:19:04.450Z,3.40
2023-05-22T15:24:06.748Z,4.00
2023-05-22T15:29:09.031Z,3.80
2023-05-22T15:34:11.244Z,4.10
2023-05-22T15:39:13.264Z,4.10
2023-05-22T15:44:15.729Z,3.50
2023-05-22T15:49:17.960Z,3.70
2023-05-22T15:54:20.514Z,3.70
2023-05-22T15:59:22.823Z,3.50
2023-05-22T16:04:25.132Z,3.30
2023-05-22T16:09:27.294Z,3.50
2023-05-22T16:14:29.629Z,3.10
2023-05-22T16:19:33.580Z,3.20
2023-05-22T16:24:36.118Z,3.70
2023-05-22T16:29:38.198Z,3.60
2023-05-22T16:34:40.293Z,3.50
2023-05-22T16:39:46.237Z,3.20
2023-05-22T16:44:49.010Z,3.30
2023-05-22T16:49:54.418Z,3.00
2023-05-22T16:54:56.819Z,3.20
2023-05-22T17:00:05.333Z,3.30
2023-05-22T17:05:08.241Z,3.60
2023-05-22T17:10:10.928Z,3.40
2023-05-22T17:15:16.435Z,3.20
2023-05-22T17:20:18.966Z,3.10
2023-05-22T17:25:21.455Z,3.70
2023-05-22T17:30:23.985Z,3.60
2023-05-22T17:35:26.587Z,3.70
2023-05-22T17:40:43.231Z,3.50
2023-05-22T17:45:51.427Z,3.30
2023-05-22T17:50:56.370Z,3.30
2023-05-22T17:56:01.386Z,3.60
2023-05-22T18:01:03.362Z,3.30
2023-05-22T18:06:05.831Z,3.50
2023-05-22T18:11:08.151Z,4.00
2023-05-22T18:16:12.481Z,4.10
2023-05-22T18:21:15.030Z,3.40
2023-05-22T18:26:17.378Z,4.50
2023-05-22T18:31:19.673Z,4.20
2023-05-22T18:36:25.567Z,3.90
2023-05-22T18:41:30.093Z,3.90
2023-05-22T18:46:32.529Z,4.30
2023-05-22T18:51:39.633Z,4.80
2023-05-22T18:56:44.614Z,4.20
2023-05-22T19:01:46.936Z,4.10
2023-05-22T19:06:49.078Z,4.20
2023-05-22T19:12:03.881Z,4.20
2023-05-22T19:17:10.205Z,5.30
2023-05-22T19:22:12.683Z,5.00
2023-05-22T19:27:15.164Z,5.10
2023-05-22T19:32:18.078Z,4.80
2023-05-22T19:37:21.865Z,4.90
2023-05-22T19:42:23.865Z,4.30
2023-05-22T19:47:25.902Z,4.60
2023-05-22T19:52:28.076Z,4.80
2023-05-22T19:57:30.129Z,4.70
2023-05-22T20:02:32.105Z,4.70
2023-05-22T20:07:34.064Z,5.10
2023-05-22T20:12:37.666Z,5.90
2023-05-22T20:17:41.579Z,6.00
2023-05-22T20:22:44.461Z,6.90
2023-05-22T20:27:46.475Z,7.10
2023-05-22T20:32:51.989Z,7.10
2023-05-22T20:37:54.111Z,6.30
2023-05-22T20:42:57.169Z,5.80
2023-05-22T20:47:59.545Z,5.70
2023-05-22T20:53:01.712Z,5.40
2023-05-22T20:58:04.652Z,5.90
2023-05-22T21:03:09.099Z,6.20
2023-05-22T21:08:11.373Z,6.00
2023-05-22T21:13:25.733Z,5.50
2023-05-22T21:18:33.444Z,6.10
2023-05-22T21:23:38.420Z,6.60
2023-05-22T21:28:46.127Z,7.60
2023-05-22T21:33:54.206Z,7.60
2023-05-22T21:39:00.389Z,7.10
2023-05-22T21:44:08.704Z,7.60
2023-05-22T21:49:17.159Z,7.40
2023-05-22T21:54:19.707Z,6.70
2023-05-22T21:59:41.087Z,6.90
2023-05-22T22:04:43.835Z,6.50
2023-05-22T22:09:46.418Z,7.10
2023-05-22T22:14:53.977Z,6.90
2023-05-22T22:19:59.108Z,7.20
2023-05-22T22:25:01.505Z,8.20
2023-05-22T22:30:07.359Z,8.80
2023-05-22T22:35:10.589Z,9.80
2023-05-22T22:40:37.582Z,9.70
2023-05-22T22:45:47.555Z,9.60
2023-05-22T22:50:50.135Z,9.60
2023-05-22T22:56:03.101Z,10.10
2023-05-22T23:01:10.561Z,9.80
2023-05-22T23:06:18.187Z,9.40
2023-05-22T23:11:28.133Z,9.70
2023-05-22T23:16:47.633Z,9.00
2023-05-22T23:21:52.823Z,8.70
2023-05-22T23:27:01.134Z,9.00
2023-05-22T23:32:14.586Z,9.00
2023-05-22T23:37:25.077Z,8.60
2023-05-22T23:42:28.669Z,8.90
2023-05-22T23:47:44.517Z,9.00
2023-05-22T23:52:58.211Z,8.10
2023-05-22T23:58:00.879Z,8.40
